createdAt,value
2023-02-04T00:01:43.937Z,4.57
2023-02-04T00:04:14.134Z,3.97
2023-02-04T00:06:42.369Z,4.23
2023-02-04T00:09:10.293Z,4.80
2023-02-04T00:11:39.565Z,5.03
2023-02-04T00:14:07.597Z,4.70
2023-02-04T00:16:35.495Z,5.03
2023-02-04T00:19:03.490Z,4.03
2023-02-04T00:21:31.399Z,4.77
2023-02-04T00:23:59.329Z,4.33
2023-02-04T00:26:27.240Z,3.80
2023-02-04T00:28:56.494Z,4.20
2023-02-04T00:31:24.562Z,3.83
2023-02-04T00:33:52.728Z,3.63
2023-02-04T00:36:20.639Z,3.37
2023-02-04T00:38:48.554Z,4.13
2023-02-04T00:41:16.474Z,4.10
2023-02-04T00:43:44.541Z,4.57
2023-02-04T00:46:13.901Z,4.00
2023-02-04T00:48:41.838Z,3.83
2023-02-04T00:51:09.754Z,3.70
2023-02-04T00:53:37.733Z,4.47
2023-02-04T00:56:06.016Z,4.83
2023-02-04T00:58:33.934Z,4.97
2023-02-04T01:01:01.975Z,4.73
2023-02-04T01:03:31.400Z,5.60
2023-02-04T01:05:59.306Z,4.97
2023-02-04T01:08:27.312Z,4.80
2023-02-04T01:10:55.221Z,5.20
2023-02-04T01:13:23.154Z,5.40
2023-02-04T01:15:51.070Z,5.50
2023-02-04T01:18:18.964Z,6.00
2023-02-04T01:20:48.528Z,5.80
2023-02-04T01:23:16.448Z,6.00
2023-02-04T01:25:44.451Z,4.80
2023-02-04T01:28:12.705Z,5.77
2023-02-04T01:30:40.664Z,6.03
2023-02-04T01:33:08.603Z,6.53
2023-02-04T01:35:36.515Z,5.47
2023-02-04T01:38:05.855Z,5.83
2023-02-04T01:40:33.881Z,5.43
2023-02-04T01:43:02.099Z,5.83
2023-02-04T01:45:33.907Z,5.80
2023-02-04T01:48:02.222Z,6.00
2023-02-04T01:50:30.681Z,5.73
2023-02-04T01:52:58.881Z,5.40
2023-02-04T01:55:30.359Z,5.20
2023-02-04T01:57:59.075Z,4.43
2023-02-04T02:00:29.009Z,5.20
2023-02-04T02:02:57.677Z,5.33
2023-02-04T02:05:28.482Z,4.70
2023-02-04T02:07:59.563Z,5.03
2023-02-04T02:10:30.766Z,4.57
2023-02-04T02:12:59.418Z,4.60
2023-02-04T02:15:27.929Z,4.03
2023-02-04T02:17:56.480Z,4.40
2023-02-04T02:20:26.060Z,4.33
2023-02-04T02:23:03.627Z,4.13
2023-02-04T02:25:33.600Z,4.00
2023-02-04T02:28:02.580Z,3.97
2023-02-04T02:30:31.179Z,3.47
2023-02-04T02:32:59.452Z,3.70
2023-02-04T02:35:27.428Z,3.17
2023-02-04T02:37:55.388Z,3.50
2023-02-04T02:40:23.709Z,3.50
2023-02-04T02:42:54.860Z,3.60
2023-02-04T02:45:27.129Z,2.83
2023-02-04T02:47:56.980Z,3.10
2023-02-04T02:50:27.192Z,3.07
2023-02-04T02:52:55.514Z,3.33
2023-02-04T02:55:26.628Z,3.00
2023-02-04T02:57:57.076Z,3.33
2023-02-04T03:00:26.860Z,3.10
2023-02-04T03:03:00.768Z,2.93
2023-02-04T03:05:31.500Z,3.47
2023-02-04T03:07:59.801Z,2.90
2023-02-04T03:10:27.987Z,2.77
2023-02-04T03:12:57.489Z,2.97
2023-02-04T03:15:25.461Z,2.67
2023-02-04T03:17:56.550Z,2.10
2023-02-04T03:20:26.190Z,2.47
2023-02-04T03:22:55.325Z,2.97
2023-02-04T03:25:26.444Z,2.73
2023-02-04T03:27:55.028Z,2.70
2023-02-04T03:30:25.206Z,2.53
2023-02-04T03:32:54.416Z,2.70
2023-02-04T03:35:22.719Z,2.60
2023-02-04T03:37:50.798Z,3.07
2023-02-04T03:40:18.872Z,3.10
2023-02-04T03:42:46.823Z,2.77
2023-02-04T03:45:14.887Z,3.10
2023-02-04T03:47:44.155Z,2.80
2023-02-04T03:50:13.906Z,2.60
2023-02-04T03:52:41.854Z,2.20
2023-02-04T03:55:10.111Z,2.80
2023-02-04T03:57:38.030Z,2.63
2023-02-04T04:00:06.700Z,2.47
2023-02-04T04:02:34.644Z,3.17
2023-02-04T04:05:03.956Z,2.50
2023-02-04T04:07:31.988Z,2.70
2023-02-04T04:09:59.932Z,3.40
2023-02-04T04:12:27.901Z,2.90
2023-02-04T04:14:55.836Z,3.20
2023-02-04T04:17:23.804Z,3.40
2023-02-04T04:19:51.692Z,2.67
2023-02-04T04:22:20.932Z,2.67
2023-02-04T04:24:48.844Z,3.07
2023-02-04T04:27:16.794Z,2.60
2023-02-04T04:29:44.780Z,2.87
2023-02-04T04:32:12.720Z,2.67
2023-02-04T04:34:40.691Z,4.00
2023-02-04T04:37:08.614Z,3.87
2023-02-04T04:39:37.966Z,3.40
2023-02-04T04:42:05.944Z,3.07
2023-02-04T04:44:33.846Z,2.67
2023-02-04T04:47:01.848Z,3.03
2023-02-04T04:49:29.777Z,2.70
2023-02-04T04:51:57.739Z,2.83
2023-02-04T04:54:25.658Z,2.93
2023-02-04T04:56:54.953Z,3.43
2023-02-04T04:59:23.032Z,2.67
2023-02-04T05:01:50.972Z,2.80
2023-02-04T05:04:19.028Z,3.03
2023-02-04T05:06:47.010Z,2.47
2023-02-04T05:09:17.432Z,2.97
2023-02-04T05:11:45.535Z,2.97
2023-02-04T05:14:14.850Z,2.63
2023-02-04T05:16:43.320Z,2.53
2023-02-04T05:19:11.480Z,2.40
2023-02-04T05:21:39.808Z,2.50
2023-02-04T05:24:07.885Z,2.77
2023-02-04T05:26:35.789Z,2.37
2023-02-04T05:29:03.747Z,2.57
2023-02-04T05:31:33.206Z,2.33
2023-02-04T05:34:01.439Z,2.77
2023-02-04T05:36:29.540Z,2.60
2023-02-04T05:38:57.430Z,2.60
2023-02-04T05:41:25.490Z,2.40
2023-02-04T05:43:53.430Z,2.50
2023-02-04T05:46:21.416Z,2.40
2023-02-04T05:48:50.718Z,2.43
2023-02-04T05:51:18.661Z,2.40
2023-02-04T05:53:46.634Z,2.47
2023-02-04T05:56:14.591Z,2.00
2023-02-04T05:58:42.492Z,1.97
2023-02-04T06:01:10.497Z,2.20
2023-02-04T06:03:38.508Z,2.63
2023-02-04T06:06:08.180Z,2.43
2023-02-04T06:08:36.135Z,2.20
2023-02-04T06:11:04.079Z,2.13
2023-02-04T06:13:32.018Z,3.00
2023-02-04T06:15:59.929Z,2.53
2023-02-04T06:18:27.849Z,2.70
2023-02-04T06:20:55.795Z,2.03
2023-02-04T06:23:25.085Z,2.17
2023-02-04T06:25:52.971Z,2.40
2023-02-04T06:28:21.084Z,2.47
2023-02-04T06:30:49.550Z,2.50
2023-02-04T06:33:17.569Z,2.13
2023-02-04T06:35:45.507Z,2.60
2023-02-04T06:38:13.459Z,2.10
2023-02-04T06:40:42.764Z,2.17
2023-02-04T06:43:10.680Z,2.03
2023-02-04T06:45:38.589Z,2.20
2023-02-04T06:48:06.895Z,2.00
2023-02-04T06:50:34.819Z,2.30
2023-02-04T06:53:02.782Z,2.33
2023-02-04T06:55:31.487Z,2.10
2023-02-04T06:58:01.106Z,2.67
2023-02-04T07:00:31.216Z,2.63
2023-02-04T07:02:59.851Z,3.30
2023-02-04T07:05:27.853Z,3.17
2023-02-04T07:07:55.791Z,3.30
2023-02-04T07:10:23.718Z,3.47
2023-02-04T07:12:51.652Z,3.50
2023-02-04T07:15:20.996Z,4.07
2023-02-04T07:17:48.894Z,3.70
2023-02-04T07:20:17.181Z,3.40
2023-02-04T07:22:45.083Z,3.77
2023-02-04T07:25:15.014Z,3.53
2023-02-04T07:27:43.179Z,2.97
2023-02-04T07:30:12.147Z,3.70
2023-02-04T07:32:41.484Z,3.67
2023-02-04T07:35:11.800Z,3.47
2023-02-04T07:37:39.739Z,3.60
2023-02-04T07:40:08.728Z,3.90
2023-02-04T07:42:36.721Z,2.77
2023-02-04T07:45:05.003Z,2.80
2023-02-04T07:47:32.934Z,2.40
2023-02-04T07:50:02.284Z,2.60
2023-02-04T07:52:30.228Z,2.83
2023-02-04T07:54:58.553Z,2.43
2023-02-04T07:57:26.447Z,2.67
2023-02-04T07:59:54.519Z,2.20
2023-02-04T08:02:22.731Z,2.10
2023-02-04T08:04:50.676Z,2.57
2023-02-04T08:07:19.965Z,2.53
2023-02-04T08:09:47.971Z,1.67
2023-02-04T08:12:15.942Z,2.00
2023-02-04T08:14:44.000Z,2.50
2023-02-04T08:17:11.979Z,2.00
2023-02-04T08:19:39.902Z,2.27
2023-02-04T08:22:07.963Z,2.00
2023-02-04T08:24:37.213Z,2.43
2023-02-04T08:27:05.480Z,2.07
2023-02-04T08:29:33.394Z,2.00
2023-02-04T08:32:01.371Z,2.87
2023-02-04T08:34:29.527Z,2.10
2023-02-04T08:36:57.496Z,2.57
2023-02-04T08:39:25.572Z,2.23
2023-02-04T08:41:54.889Z,3.57
2023-02-04T08:44:22.975Z,2.53
2023-02-04T08:46:51.011Z,3.17
2023-02-04T08:49:19.035Z,3.03
2023-02-04T08:51:47.026Z,3.43
2023-02-04T08:54:14.966Z,3.50
2023-02-04T08:56:42.910Z,4.77
2023-02-04T08:59:12.198Z,6.03
2023-02-04T09:01:40.111Z,5.60
2023-02-04T09:04:08.154Z,3.17
2023-02-04T09:06:36.115Z,2.37
2023-02-04T09:09:04.152Z,2.30
2023-02-04T09:11:32.107Z,3.37
2023-02-04T09:14:00.136Z,3.47
2023-02-04T09:16:29.661Z,4.40
2023-02-04T09:18:58.859Z,4.27
2023-02-04T09:21:27.021Z,3.90
2023-02-04T09:23:55.032Z,4.40
2023-02-04T09:26:23.009Z,4.70
2023-02-04T09:28:51.172Z,4.80
2023-02-04T09:31:19.453Z,5.90
2023-02-04T09:33:48.798Z,5.57
2023-02-04T09:36:17.423Z,2.63
2023-02-04T09:38:45.378Z,4.30
2023-02-04T09:41:15.857Z,4.93
2023-02-04T09:43:46.327Z,4.90
2023-02-04T09:46:21.521Z,4.27
2023-02-04T09:48:51.952Z,4.87
2023-02-04T09:51:26.583Z,6.30
2023-02-04T09:53:58.521Z,4.80
2023-02-04T09:56:26.995Z,5.20
2023-02-04T09:58:54.964Z,6.10
2023-02-04T10:01:22.979Z,4.80
2023-02-04T10:03:52.402Z,5.17
2023-02-04T10:06:22.232Z,5.53
2023-02-04T10:08:52.027Z,5.70
2023-02-04T10:11:22.353Z,13.40
2023-02-04T10:13:52.336Z,6.20
2023-02-04T10:16:22.704Z,7.53
2023-02-04T10:18:52.484Z,6.87
2023-02-04T10:21:23.604Z,6.23
2023-02-04T10:23:54.996Z,5.07
2023-02-04T10:26:24.561Z,4.30
2023-02-04T10:28:58.610Z,4.93
2023-02-04T10:31:31.659Z,9.00
2023-02-04T10:34:15.556Z,9.27
2023-02-04T10:36:46.947Z,17.00
2023-02-04T10:39:17.038Z,3.47
2023-02-04T10:41:52.615Z,4.93
2023-02-04T10:44:26.220Z,4.47
2023-02-04T10:47:00.640Z,5.23
2023-02-04T10:49:30.398Z,5.03
2023-02-04T10:51:58.466Z,5.13
2023-02-04T10:54:33.897Z,5.07
2023-02-04T10:57:10.304Z,5.30
2023-02-04T10:59:38.447Z,5.43
2023-02-04T11:02:33.331Z,3.30
2023-02-04T11:05:03.717Z,3.50
2023-02-04T11:07:31.678Z,3.90
2023-02-04T11:09:59.662Z,2.80
2023-02-04T11:12:41.108Z,2.83
2023-02-04T11:15:44.459Z,3.83
2023-02-04T11:18:25.954Z,8.40
2023-02-04T11:20:57.917Z,7.43
2023-02-04T11:23:37.200Z,4.40
2023-02-04T11:26:13.194Z,4.73
2023-02-04T11:28:51.351Z,4.80
2023-02-04T11:31:40.193Z,3.83
2023-02-04T11:34:13.512Z,4.70
2023-02-04T11:37:12.821Z,3.97
2023-02-04T11:39:42.471Z,3.13
2023-02-04T11:42:20.744Z,3.70
2023-02-04T11:44:53.433Z,3.57
2023-02-04T11:47:23.585Z,2.60
2023-02-04T11:49:57.088Z,2.37
2023-02-04T11:52:26.767Z,2.23
2023-02-04T11:54:55.895Z,2.60
2023-02-04T11:57:23.902Z,2.57
2023-02-04T11:59:51.910Z,4.10
2023-02-04T12:02:21.727Z,3.27
2023-02-04T12:04:55.108Z,3.70
2023-02-04T12:07:27.983Z,4.67
2023-02-04T12:09:56.426Z,3.27
2023-02-04T12:12:26.490Z,3.50
2023-02-04T12:15:05.658Z,3.50
2023-02-04T12:17:33.641Z,3.23
2023-02-04T12:20:01.718Z,5.07
2023-02-04T12:22:31.443Z,4.40
2023-02-04T12:24:59.367Z,2.33
2023-02-04T12:27:27.321Z,2.20
2023-02-04T12:29:55.708Z,3.33
2023-02-04T12:32:23.723Z,4.60
2023-02-04T12:34:51.659Z,2.47
2023-02-04T12:37:19.579Z,2.50
2023-02-04T12:39:48.906Z,3.33
2023-02-04T12:42:17.461Z,2.00
2023-02-04T12:44:45.407Z,2.30
2023-02-04T12:47:13.399Z,3.67
2023-02-04T12:49:41.406Z,2.47
2023-02-04T12:52:09.322Z,2.73
2023-02-04T12:54:37.253Z,2.57
2023-02-04T12:57:06.608Z,3.07
2023-02-04T12:59:34.779Z,3.77
2023-02-04T13:02:02.816Z,3.73
2023-02-04T13:04:30.840Z,3.80
2023-02-04T13:06:58.789Z,2.37
2023-02-04T13:09:26.735Z,3.50
2023-02-04T13:11:55.411Z,3.40
2023-02-04T13:14:24.706Z,3.20
2023-02-04T13:16:53.755Z,3.40
2023-02-04T13:19:21.692Z,3.30
2023-02-04T13:21:49.670Z,2.40
2023-02-04T13:24:18.101Z,2.27
2023-02-04T13:26:46.014Z,2.07
2023-02-04T13:29:13.965Z,2.07
2023-02-04T13:31:43.544Z,2.60
2023-02-04T13:34:11.537Z,1.60
2023-02-04T13:36:39.890Z,2.10
2023-02-04T13:39:08.037Z,2.67
2023-02-04T13:41:36.152Z,2.77
2023-02-04T13:44:04.149Z,3.20
2023-02-04T13:46:32.299Z,2.70
2023-02-04T13:49:01.789Z,2.67
2023-02-04T13:51:29.851Z,2.17
2023-02-04T13:53:58.290Z,2.93
2023-02-04T13:56:26.287Z,2.90
2023-02-04T13:58:54.242Z,3.17
2023-02-04T14:01:22.197Z,4.07
2023-02-04T14:03:50.231Z,3.33
2023-02-04T14:06:21.683Z,4.33
2023-02-04T14:08:49.736Z,3.00
2023-02-04T14:11:17.917Z,3.93
2023-02-04T14:13:45.871Z,4.47
2023-02-04T14:16:13.843Z,3.40
2023-02-04T14:18:41.773Z,2.87
2023-02-04T14:21:09.680Z,3.17
2023-02-04T14:23:38.964Z,4.07
2023-02-04T14:26:06.899Z,4.60
2023-02-04T14:28:35.015Z,4.50
2023-02-04T14:31:03.077Z,7.03
2023-02-04T14:33:31.064Z,5.10
2023-02-04T14:35:59.003Z,5.00
2023-02-04T14:38:30.960Z,6.60
2023-02-04T14:41:00.568Z,6.07
2023-02-04T14:43:28.531Z,4.67
2023-02-04T14:45:56.525Z,3.63
2023-02-04T14:48:24.490Z,4.10
2023-02-04T14:50:52.538Z,7.73
2023-02-04T14:53:20.490Z,6.97
2023-02-04T14:55:48.445Z,12.87
2023-02-04T14:58:17.733Z,5.50
2023-02-04T15:00:45.640Z,11.17
2023-02-04T15:03:13.569Z,7.83
2023-02-04T15:05:41.473Z,10.47
2023-02-04T15:08:09.481Z,6.70
2023-02-04T15:10:37.662Z,6.63
2023-02-04T15:13:05.831Z,6.03
2023-02-04T15:15:35.141Z,6.90
2023-02-04T15:18:03.157Z,5.50
2023-02-04T15:20:31.472Z,5.17
2023-02-04T15:23:00.757Z,5.97
2023-02-04T15:25:28.915Z,6.40
2023-02-04T15:27:56.962Z,7.63
2023-02-04T15:30:24.968Z,6.17
2023-02-04T15:32:54.270Z,5.40
2023-02-04T15:35:22.224Z,4.50
2023-02-04T15:37:50.179Z,4.13
2023-02-04T15:40:18.684Z,4.67
2023-02-04T15:42:46.602Z,3.30
2023-02-04T15:45:14.545Z,4.13
2023-02-04T15:47:42.519Z,5.17
2023-02-04T15:50:14.994Z,6.53
2023-02-04T15:52:42.993Z,5.87
2023-02-04T15:55:11.185Z,5.30
2023-02-04T15:57:39.514Z,6.40
2023-02-04T16:00:08.875Z,5.67
2023-02-04T16:02:36.847Z,7.80
2023-02-04T16:05:05.087Z,6.03
2023-02-04T16:07:34.649Z,6.67
2023-02-04T16:10:02.645Z,6.90
2023-02-04T16:12:30.554Z,5.43
2023-02-04T16:14:58.507Z,6.03
2023-02-04T16:17:26.496Z,7.70
2023-02-04T16:19:54.430Z,7.60
2023-02-04T16:22:22.349Z,7.70
2023-02-04T16:24:52.900Z,15.10
2023-02-04T16:27:21.150Z,6.07
2023-02-04T16:29:49.574Z,9.03
2023-02-04T16:32:17.714Z,12.00
2023-02-04T16:34:45.662Z,9.97
2023-02-04T16:37:13.773Z,5.57
2023-02-04T16:39:44.646Z,7.60
2023-02-04T16:42:13.980Z,6.70
2023-02-04T16:44:41.924Z,6.00
2023-02-04T16:47:10.270Z,4.87
2023-02-04T16:49:38.716Z,4.67
2023-02-04T16:52:07.230Z,4.03
2023-02-04T16:54:35.630Z,4.33
2023-02-04T16:57:03.864Z,5.27
2023-02-04T16:59:33.199Z,7.23
2023-02-04T17:02:01.337Z,5.30
2023-02-04T17:04:30.491Z,4.80
2023-02-04T17:07:00.436Z,5.10
2023-02-04T17:09:28.446Z,3.17
2023-02-04T17:11:56.504Z,3.70
2023-02-04T17:14:25.094Z,4.37
2023-02-04T17:16:54.421Z,3.90
2023-02-04T17:19:22.348Z,4.10
2023-02-04T17:21:50.269Z,3.60
2023-02-04T17:24:18.286Z,8.03
2023-02-04T17:26:46.279Z,4.70
2023-02-04T17:29:17.187Z,6.40
2023-02-04T17:31:45.395Z,5.57
2023-02-04T17:34:15.213Z,6.10
2023-02-04T17:36:43.107Z,6.57
2023-02-04T17:39:11.032Z,4.67
2023-02-04T17:41:38.939Z,4.93
2023-02-04T17:44:07.160Z,4.63
2023-02-04T17:46:35.486Z,4.87
2023-02-04T17:49:03.583Z,4.17
2023-02-04T17:51:33.085Z,4.70
2023-02-04T17:54:01.131Z,4.13
2023-02-04T17:56:29.077Z,3.17
2023-02-04T17:58:57.763Z,3.60
2023-02-04T18:01:25.959Z,4.17
2023-02-04T18:03:54.229Z,3.90
2023-02-04T18:06:24.024Z,3.10
2023-02-04T18:08:56.490Z,8.13
2023-02-04T18:11:27.694Z,3.87
2023-02-04T18:13:56.551Z,5.33
2023-02-04T18:16:27.234Z,4.77
2023-02-04T18:18:57.299Z,4.87
2023-02-04T18:21:27.413Z,4.23
2023-02-04T18:24:06.053Z,3.73
2023-02-04T18:26:34.765Z,3.80
2023-02-04T18:29:15.873Z,3.60
2023-02-04T18:31:50.147Z,4.17
2023-02-04T18:34:23.862Z,5.33
2023-02-04T18:36:52.198Z,4.33
2023-02-04T18:39:27.272Z,4.57
2023-02-04T18:41:56.002Z,3.83
2023-02-04T18:44:32.523Z,3.73
2023-02-04T18:47:02.063Z,3.63
2023-02-04T18:49:31.101Z,3.80
2023-02-04T18:51:59.696Z,2.73
2023-02-04T18:54:35.539Z,3.80
2023-02-04T18:57:29.006Z,4.07
2023-02-04T19:00:18.975Z,3.80
2023-02-04T19:02:49.960Z,3.73
2023-02-04T19:05:27.484Z,3.93
2023-02-04T19:08:15.054Z,3.93
2023-02-04T19:10:44.328Z,3.90
2023-02-04T19:13:20.029Z,5.67
2023-02-04T19:15:57.581Z,5.10
2023-02-04T19:18:27.674Z,3.77
2023-02-04T19:20:56.134Z,4.27
2023-02-04T19:23:25.308Z,4.70
2023-02-04T19:25:54.595Z,4.90
2023-02-04T19:28:37.261Z,5.10
2023-02-04T19:31:06.462Z,4.87
2023-02-04T19:33:40.112Z,4.43
2023-02-04T19:36:37.950Z,4.50
2023-02-04T19:39:29.792Z,3.33
2023-02-04T19:41:59.126Z,4.00
2023-02-04T19:44:43.504Z,4.03
2023-02-04T19:47:29.983Z,4.03
2023-02-04T19:50:28.487Z,3.63
2023-02-04T19:53:02.701Z,3.90
2023-02-04T19:55:37.556Z,3.13
2023-02-04T19:58:17.683Z,4.40
2023-02-04T20:01:01.270Z,2.80
2023-02-04T20:03:35.806Z,3.77
2023-02-04T20:06:26.458Z,3.60
2023-02-04T20:08:59.684Z,4.20
2023-02-04T20:11:45.031Z,3.50
2023-02-04T20:14:39.556Z,4.30
2023-02-04T20:17:34.745Z,3.43
2023-02-04T20:20:30.573Z,3.23
2023-02-04T20:22:59.613Z,3.50
2023-02-04T20:25:40.565Z,4.00
2023-02-04T20:28:30.140Z,3.73
2023-02-04T20:31:01.639Z,3.70
2023-02-04T20:33:36.121Z,4.23
2023-02-04T20:36:28.378Z,3.80
2023-02-04T20:39:03.333Z,4.00
2023-02-04T20:41:37.168Z,3.60
2023-02-04T20:44:13.794Z,4.07
2023-02-04T20:46:43.204Z,3.93
2023-02-04T20:49:22.754Z,4.23
2023-02-04T20:51:51.082Z,3.83
2023-02-04T20:54:19.514Z,4.23
2023-02-04T20:56:47.524Z,4.40
2023-02-04T20:59:29.948Z,3.90
2023-02-04T21:01:59.970Z,4.23
2023-02-04T21:04:32.272Z,4.60
2023-02-04T21:07:02.512Z,4.10
2023-02-04T21:09:32.784Z,5.87
2023-02-04T21:12:02.218Z,8.53
2023-02-04T21:14:31.325Z,6.50
2023-02-04T21:17:00.937Z,7.50
2023-02-04T21:19:29.000Z,11.07
2023-02-04T21:21:57.665Z,8.57
2023-02-04T21:24:26.276Z,8.47
2023-02-04T21:26:54.537Z,9.50
2023-02-04T21:29:22.506Z,8.03
2023-02-04T21:31:52.642Z,7.33
2023-02-04T21:34:22.031Z,10.87
2023-02-04T21:36:50.185Z,7.03
2023-02-04T21:39:18.123Z,7.67
2023-02-04T21:41:46.047Z,7.17
2023-02-04T21:44:14.045Z,11.50
2023-02-04T21:46:42.138Z,9.87
2023-02-04T21:49:10.568Z,6.77
2023-02-04T21:51:39.872Z,6.63
2023-02-04T21:54:07.795Z,7.23
2023-02-04T21:56:35.789Z,8.27
2023-02-04T21:59:04.669Z,6.60
2023-02-04T22:01:32.606Z,6.67
2023-02-04T22:04:00.735Z,6.07
2023-02-04T22:06:28.868Z,5.60
2023-02-04T22:08:58.136Z,5.47
2023-02-04T22:11:26.049Z,6.70
2023-02-04T22:13:53.987Z,5.63
2023-02-04T22:16:21.930Z,6.47
2023-02-04T22:18:49.937Z,6.30
2023-02-04T22:21:17.881Z,6.87
2023-02-04T22:23:45.845Z,6.53
2023-02-04T22:26:15.145Z,5.70
2023-02-04T22:28:43.079Z,6.47
2023-02-04T22:31:12.502Z,6.40
2023-02-04T22:33:40.948Z,5.23
2023-02-04T22:36:09.273Z,6.30
2023-02-04T22:38:37.258Z,6.00
2023-02-04T22:41:05.341Z,6.87
2023-02-04T22:43:34.650Z,5.23
2023-02-04T22:46:02.579Z,5.60
2023-02-04T22:48:30.607Z,6.53
2023-02-04T22:50:58.503Z,6.27
2023-02-04T22:53:26.423Z,8.53
2023-02-04T22:55:54.334Z,9.43
2023-02-04T22:58:22.293Z,10.87
2023-02-04T23:00:51.641Z,10.13
2023-02-04T23:03:19.594Z,10.10
2023-02-04T23:05:48.002Z,7.90
2023-02-04T23:08:17.839Z,8.03
2023-02-04T23:10:46.022Z,9.27
2023-02-04T23:13:14.196Z,8.07
2023-02-04T23:15:42.192Z,9.20
2023-02-04T23:18:11.691Z,8.10
2023-02-04T23:20:41.502Z,13.70
2023-02-04T23:23:10.585Z,18.33
2023-02-04T23:25:38.560Z,24.63
2023-02-04T23:28:06.765Z,26.53
2023-02-04T23:30:34.779Z,20.90
2023-02-04T23:33:03.039Z,13.40
2023-02-04T23:35:33.280Z,18.10
2023-02-04T23:38:02.983Z,10.57
2023-02-04T23:40:30.953Z,11.80
2023-02-04T23:42:58.862Z,9.03
2023-02-04T23:45:26.931Z,10.43
2023-02-04T23:47:54.939Z,9.83
2023-02-04T23:50:22.881Z,12.80
2023-02-04T23:52:52.307Z,18.17
2023-02-04T23:55:20.283Z,15.17
2023-02-04T23:57:49.724Z,19.87
